Airfield :
LOGIN :

Register | Disclaimer

   EN    FR    IT 

 










Legend :    VFR   Marginal VFR   IFR   Intensive IFR   Very Intensive IFR
Visi :
Ceiling :
>= 8 km
>= 3000ft
5 to 8 km
1000 to 3000 ft
1500m to 5 km
500 to 1000 ft
800 to 1500m
200 to 500 ft
< 800m
< 200 ft
Symbols :   Thunderstorms  Fog  Heavy snow  Heavy precipitations  Wind > 20 kt
SIGMETs :     Misc.  Thunderstorms  Icing  Turbulence  Mountain Waves  Volcanic Ashes







- Airport Elevation : 141 ft
- IATA code : SKS


EKSP - Srydstrup Vojens

CURRENT METAR :
  • 270820Z 27008KT 240V340 9999 SCT038 BKN250 14/06 Q1013 NOSIG

EXPIRED METARs :
  • 270750Z 28009KT 260V320 9999 SCT038 BKN250 14/07 Q1013 NOSIG
  • 270720Z 30008KT 9999 SCT038 BKN250 13/06 Q1013 NOSIG
  • 270650Z 31008KT 280V340 9999 SCT038 BKN250 13/06 Q1013 NOSIG
  • 270620Z 29010KT 9999 SCT038 BKN250 13/07 Q1013 NOSIG
  • 270550Z 29008KT 9999 FEW040 SCT250 12/07 Q1012 NOSIG

TAF TAF EKSP
Valid from the 27 at 09:00 until the 28 at 06:00 UTC


270805Z 2709/2806 28008KT 9999 SCT040 SCT200
BECMG 2718/2721 VRB05KT
No reported NOTAMs for that airfield.



MET'MAP, your aeronautical weather chart ! - Copyright ORBIFLY December 2007 - Disclaimer

ORBIFLY MET'MAP TEAM :

Programming & Development : Alexandra Zaïnal
Concept & Development : Baudouin d'Aumeries
Co-Development & Prog : Marc-Olivier Méhu
Technical & hardware support : Manuel Goepfert

Contact : metmap@orbifly.com




SOURCES & CREDITS :

   NOAA